Time;durP1;ratioP1;P1;durP2;ratioP2;P2;SDS_P1;SDS_P2;PMS_P1;PMS_P2;Temp;Humidity;BMP_temperature;BMP_pressure;BME280_temperature;BME280_humidity;BME280_pressure;Samples;Min_cycle;Max_cycle;Signal;HPM_P1;HPM_P2
2024/03/20 00:00:00;;;;;;;;;;;;;;;21.14;29.21;97963.97;4998586;28;922;-76
2024/03/20 00:02:26;;;;;;;;;;;;;;;21.20;29.33;97967.88;5031401;28;974;-75
2024/03/20 00:04:52;;;;;;;;;;;;;;;21.04;29.36;97971.53;5014576;28;952;-76
2024/03/20 00:07:17;;;;;;;;;;;;;;;21.11;29.45;97964.88;5014668;28;1979;-76
2024/03/20 00:09:43;;;;;;;;;;;;;;;21.22;29.32;97965.41;5010117;28;868;-77
2024/03/20 00:12:09;;;;;;;;;;;;;;;21.01;29.65;97963.91;5017350;28;863;-76
2024/03/20 00:14:34;;;;;;;;;;;;;;;21.24;29.11;97963.72;4994548;28;975;-76
2024/03/20 00:17:02;;;;;;;;;;;;;;;20.89;29.49;97967.44;4995273;28;1129;-76
2024/03/20 00:19:27;;;;;;;;;;;;;;;21.07;29.40;97959.31;4962595;28;1241;-76
2024/03/20 00:21:53;;;;;;;;;;;;;;;20.85;29.88;97961.09;4978642;28;1293;-76
2024/03/20 00:24:19;;;;;;;;;;;;;;;21.04;29.53;97954.56;4946289;28;1051;-75
2024/03/20 00:26:45;;;;;;;;;;;;;;;21.07;29.32;97959.31;4978118;28;2010;-76
2024/03/20 00:29:11;;;;;;;;;;;;;;;21.07;29.27;97953.66;4978285;28;995;-76
2024/03/20 00:31:37;;;;;;;;;;;;;;;21.05;29.27;97956.94;4995038;28;1101;-76
2024/03/20 00:34:04;;;;;;;;;;;;;;;21.20;29.06;97957.38;4962506;28;1020;-76
2024/03/20 00:36:31;;;;;;;;;;;;;;;21.12;29.38;97964.44;4978918;28;1051;-76
2024/03/20 00:38:56;;;;;;;;;;;;;;;21.09;29.00;97948.38;4978429;28;1315;-76
2024/03/20 00:41:22;;;;;;;;;;;;;;;21.27;28.90;97951.50;4978569;28;998;-76
2024/03/20 00:43:47;;;;;;;;;;;;;;;21.13;29.29;97951.88;4994753;28;934;-77
2024/03/20 00:46:13;;;;;;;;;;;;;;;21.26;29.03;97944.25;5015353;28;1902;-76
2024/03/20 00:48:39;;;;;;;;;;;;;;;20.92;29.46;97941.09;5018330;28;1127;-76
2024/03/20 00:51:05;;;;;;;;;;;;;;;21.29;28.90;97949.03;5035592;28;877;-76
2024/03/20 00:53:30;;;;;;;;;;;;;;;21.30;28.84;97947.84;5034482;28;1135;-76
2024/03/20 00:55:56;;;;;;;;;;;;;;;21.20;28.88;97948.88;5035078;28;1054;-75
2024/03/20 00:58:21;;;;;;;;;;;;;;;21.41;28.44;97943.94;5034719;28;934;-75
2024/03/20 01:00:47;;;;;;;;;;;;;;;21.65;28.02;97939.59;5035116;28;1122;-77
2024/03/20 01:03:13;;;;;;;;;;;;;;;21.24;28.70;97943.09;5021090;28;972;-76
2024/03/20 01:05:39;;;;;;;;;;;;;;;21.04;29.19;97943.22;5039050;28;892;-76
2024/03/20 01:08:05;;;;;;;;;;;;;;;21.06;29.01;97946.41;5038069;28;1983;-75
2024/03/20 01:10:30;;;;;;;;;;;;;;;20.74;29.54;97938.72;5039527;28;945;-76
2024/03/20 01:12:56;;;;;;;;;;;;;;;20.87;29.24;97945.25;5038406;28;1046;-76
2024/03/20 01:15:21;;;;;;;;;;;;;;;20.92;29.37;97952.41;5037933;28;956;-76
2024/03/20 01:17:47;;;;;;;;;;;;;;;21.10;29.19;97941.47;5020389;28;1408;-76
2024/03/20 01:20:13;;;;;;;;;;;;;;;21.08;28.84;97938.25;5037226;28;1034;-76
2024/03/20 01:22:38;;;;;;;;;;;;;;;21.09;29.31;97939.88;5037422;28;1124;-75
2024/03/20 01:25:04;;;;;;;;;;;;;;;21.53;28.32;97940.34;5020523;28;1159;-75
2024/03/20 01:27:30;;;;;;;;;;;;;;;21.23;28.94;97955.66;5037280;28;1985;-76
2024/03/20 01:29:56;;;;;;;;;;;;;;;21.04;28.95;97946.06;5037040;28;971;-76
2024/03/20 01:32:21;;;;;;;;;;;;;;;21.07;28.91;97948.00;5017013;28;1342;-76
2024/03/20 01:34:47;;;;;;;;;;;;;;;21.65;28.31;97942.44;5000547;28;999;-76
2024/03/20 01:37:13;;;;;;;;;;;;;;;21.22;28.80;97949.22;5016892;28;923;-76
2024/03/20 01:39:38;;;;;;;;;;;;;;;21.18;28.63;97947.72;5016772;28;951;-76
2024/03/20 01:42:04;;;;;;;;;;;;;;;20.86;29.13;97942.88;5000868;28;1156;-76
2024/03/20 01:44:30;;;;;;;;;;;;;;;21.19;28.68;97943.63;4961543;28;1044;-76
2024/03/20 01:46:55;;;;;;;;;;;;;;;21.54;28.33;97947.59;4977881;28;1985;-76
2024/03/20 01:49:21;;;;;;;;;;;;;;;21.27;28.36;97945.84;4991998;28;1196;-77
2024/03/20 01:51:47;;;;;;;;;;;;;;;20.99;28.86;97946.59;4980938;28;1348;-75
2024/03/20 01:54:13;;;;;;;;;;;;;;;21.22;28.68;97949.22;4981016;28;1037;-76
2024/03/20 01:56:38;;;;;;;;;;;;;;;21.37;28.61;97951.72;4981359;28;1177;-76
2024/03/20 01:59:04;;;;;;;;;;;;;;;21.37;28.63;97948.88;4980463;28;919;-76
2024/03/20 02:01:30;;;;;;;;;;;;;;;21.33;28.57;97955.41;4980690;28;984;-75
2024/03/20 02:03:57;;;;;;;;;;;;;;;21.27;28.51;97962.84;4964093;28;993;-76
2024/03/20 02:06:26;;;;;;;;;;;;;;;21.09;28.96;97956.84;4996734;28;1977;-76
2024/03/20 02:08:53;;;;;;;;;;;;;;;21.23;28.91;97973.44;4980598;28;1290;-76
2024/03/20 02:11:18;;;;;;;;;;;;;;;21.22;28.88;97954.88;5013916;28;988;-76
2024/03/20 02:13:45;;;;;;;;;;;;;;;21.43;28.63;97952.75;4995761;28;938;-76
2024/03/20 02:16:10;;;;;;;;;;;;;;;21.52;28.40;97961.41;4996663;28;980;-76
2024/03/20 02:18:36;;;;;;;;;;;;;;;21.62;27.92;97960.34;5012638;28;982;-76
2024/03/20 02:21:08;;;;;;;;;;;;;;;21.44;28.53;97960.00;5018490;28;1155;-76
2024/03/20 02:23:34;;;;;;;;;;;;;;;21.82;27.96;97963.81;5036833;28;930;-75
2024/03/20 02:26:00;;;;;;;;;;;;;;;21.68;28.23;97964.22;5037034;28;1211;-77
2024/03/20 02:28:25;;;;;;;;;;;;;;;21.74;27.99;97973.75;5002662;28;1906;-76
2024/03/20 02:30:51;;;;;;;;;;;;;;;21.72;27.86;97969.78;5020335;28;1440;-76
2024/03/20 02:33:16;;;;;;;;;;;;;;;21.64;27.91;97974.81;5036334;28;968;-76
2024/03/20 02:35:42;;;;;;;;;;;;;;;21.46;27.85;97969.66;5037047;28;978;-76
2024/03/20 02:38:07;;;;;;;;;;;;;;;20.81;29.15;97970.44;5036727;28;939;-76
2024/03/20 02:40:33;;;;;;;;;;;;;;;20.62;29.52;97974.13;5036340;28;1127;-76
2024/03/20 02:42:59;;;;;;;;;;;;;;;21.07;29.06;97959.31;5036307;28;1289;-76
2024/03/20 02:45:24;;;;;;;;;;;;;;;21.18;28.81;97971.16;5020064;28;1177;-75
2024/03/20 02:47:50;;;;;;;;;;;;;;;21.05;28.85;97962.59;5019594;28;1981;-76
2024/03/20 02:50:16;;;;;;;;;;;;;;;21.04;28.64;97968.69;5037627;28;946;-76
2024/03/20 02:52:41;;;;;;;;;;;;;;;21.12;28.75;97967.25;5053442;28;880;-76
2024/03/20 02:55:07;;;;;;;;;;;;;;;21.29;28.58;97960.34;5036258;28;994;-76
2024/03/20 02:57:33;;;;;;;;;;;;;;;21.05;28.93;97978.78;5037538;28;907;-76
2024/03/20 02:59:58;;;;;;;;;;;;;;;21.11;28.96;97970.53;5019862;28;1363;-76
2024/03/20 03:02:24;;;;;;;;;;;;;;;21.14;28.79;97972.47;5037956;28;972;-76
2024/03/20 03:04:50;;;;;;;;;;;;;;;21.00;29.07;97979.28;5036058;28;902;-76
2024/03/20 03:07:15;;;;;;;;;;;;;;;20.86;29.20;97982.47;5015082;28;1977;-76
2024/03/20 03:09:41;;;;;;;;;;;;;;;20.91;29.11;97991.22;4998825;28;1006;-75
2024/03/20 03:12:07;;;;;;;;;;;;;;;20.77;29.11;97981.03;4999167;28;923;-76
2024/03/20 03:14:32;;;;;;;;;;;;;;;20.91;29.00;97990.41;5015229;28;1004;-76
2024/03/20 03:16:58;;;;;;;;;;;;;;;20.86;28.65;97993.78;4983125;28;1651;-76
2024/03/20 03:19:23;;;;;;;;;;;;;;;20.80;28.46;97988.63;4982394;28;980;-76
2024/03/20 03:21:49;;;;;;;;;;;;;;;20.80;28.33;97991.47;5015708;28;1007;-76
2024/03/20 03:24:14;;;;;;;;;;;;;;;20.71;28.40;97982.00;4982478;28;1117;-76
2024/03/20 03:26:40;;;;;;;;;;;;;;;20.74;28.22;97998.88;5014708;28;1902;-76
2024/03/20 03:29:06;;;;;;;;;;;;;;;20.78;28.06;97993.94;5014969;28;1123;-77
2024/03/20 03:31:32;;;;;;;;;;;;;;;21.01;27.74;98001.47;5015365;28;883;-76
2024/03/20 03:33:58;;;;;;;;;;;;;;;20.88;27.81;98005.44;5015258;28;962;-76
2024/03/20 03:36:24;;;;;;;;;;;;;;;20.96;27.73;98009.69;4998958;28;1096;-76
2024/03/20 03:38:49;;;;;;;;;;;;;;;21.11;27.27;98005.28;5010241;28;921;-75
2024/03/20 03:41:15;;;;;;;;;;;;;;;21.20;26.77;98013.97;5018630;28;1135;-75
2024/03/20 03:43:40;;;;;;;;;;;;;;;20.89;27.30;98016.31;5001580;28;1165;-76
2024/03/20 03:46:07;;;;;;;;;;;;;;;20.89;27.07;98026.84;5035465;28;1028;-76
2024/03/20 03:48:33;;;;;;;;;;;;;;;20.65;27.42;98023.34;5001801;28;1971;-76
2024/03/20 03:50:58;;;;;;;;;;;;;;;20.63;27.22;98026.63;4995145;28;978;-76
2024/03/20 03:53:24;;;;;;;;;;;;;;;20.58;27.46;98029.16;4978875;28;1045;-75
2024/03/20 03:55:49;;;;;;;;;;;;;;;20.69;27.30;98019.19;4979267;28;1000;-76
2024/03/20 03:58:15;;;;;;;;;;;;;;;20.53;27.29;98016.34;4924095;29;1232;-76
2024/03/20 04:00:41;;;;;;;;;;;;;;;20.76;26.80;98013.38;4940869;29;947;-76
2024/03/20 04:03:06;;;;;;;;;;;;;;;20.78;26.78;98010.91;4940283;29;949;-76
2024/03/20 04:05:32;;;;;;;;;;;;;;;20.81;26.90;98018.50;4940807;29;942;-75
2024/03/20 04:07:58;;;;;;;;;;;;;;;20.78;26.94;98019.41;4959322;28;1907;-75
2024/03/20 04:10:24;;;;;;;;;;;;;;;20.97;26.69;98016.94;4959441;28;1291;-76
2024/03/20 04:12:50;;;;;;;;;;;;;;;21.05;26.53;98016.34;4975586;28;939;-76
2024/03/20 04:15:15;;;;;;;;;;;;;;;20.96;26.60;98037.97;4975163;28;1098;-77
2024/03/20 04:17:41;;;;;;;;;;;;;;;20.54;26.78;98024.38;4959286;28;992;-76
2024/03/20 04:20:12;;;;;;;;;;;;;;;20.25;27.29;98029.00;4975302;28;1023;-75
2024/03/20 04:22:38;;;;;;;;;;;;;;;20.38;27.04;98034.81;4936896;29;1055;-76
2024/03/20 04:25:05;;;;;;;;;;;;;;;20.53;26.83;98027.66;4917423;29;946;-75
2024/03/20 04:27:30;;;;;;;;;;;;;;;20.62;26.58;98029.84;4918751;29;1898;-77
2024/03/20 04:29:56;;;;;;;;;;;;;;;20.58;26.56;98040.47;4903118;29;1065;-77
2024/03/20 04:32:21;;;;;;;;;;;;;;;20.71;26.59;98022.38;4899831;29;1216;-77
2024/03/20 04:34:47;;;;;;;;;;;;;;;20.48;26.66;98030.97;4899636;29;939;-77
2024/03/20 04:37:13;;;;;;;;;;;;;;;20.68;26.29;98022.47;4901434;29;1160;-77
2024/03/20 04:39:39;;;;;;;;;;;;;;;20.82;26.04;98019.31;4917621;29;1077;-77
2024/03/20 04:42:05;;;;;;;;;;;;;;;20.59;26.44;98014.59;4935211;29;1660;-76
2024/03/20 04:44:30;;;;;;;;;;;;;;;20.45;26.78;98020.50;4937102;29;2153;-77
2024/03/20 04:46:56;;;;;;;;;;;;;;;20.48;26.49;98019.69;4921556;29;1911;-77
2024/03/20 04:49:21;;;;;;;;;;;;;;;20.79;26.16;98020.19;4905590;29;1259;-76
2024/03/20 04:51:47;;;;;;;;;;;;;;;20.94;25.62;98024.28;4938062;29;950;-78
2024/03/20 04:54:15;;;;;;;;;;;;;;;20.97;25.63;98025.41;4951044;29;930;-77
2024/03/20 04:56:41;;;;;;;;;;;;;;;20.87;25.61;98015.16;4959807;29;1847;-77
2024/03/20 04:59:09;;;;;;;;;;;;;;;20.74;26.05;98021.50;4959828;29;1004;-77
2024/03/20 05:01:35;;;;;;;;;;;;;;;20.89;25.60;98038.16;4951519;28;1065;-77
2024/03/20 05:04:01;;;;;;;;;;;;;;;20.84;25.95;98042.28;5001886;28;1045;-77
2024/03/20 05:06:27;;;;;;;;;;;;;;;20.85;25.79;98043.88;5019185;28;1914;-77
2024/03/20 05:08:52;;;;;;;;;;;;;;;20.55;25.97;98047.78;5001589;28;945;-78
2024/03/20 05:11:18;;;;;;;;;;;;;;;20.48;26.05;98053.59;5017931;28;1461;-77
2024/03/20 05:13:44;;;;;;;;;;;;;;;20.48;25.88;98051.56;5000732;28;1508;-77
2024/03/20 05:16:09;;;;;;;;;;;;;;;20.44;26.48;98052.84;5018661;28;944;-76
2024/03/20 05:18:35;;;;;;;;;;;;;;;20.61;25.88;98063.00;5018659;28;1063;-77
2024/03/20 05:21:00;;;;;;;;;;;;;;;20.68;25.83;98062.84;5019619;28;869;-77
2024/03/20 05:23:26;;;;;;;;;;;;;;;20.86;25.64;98050.34;5014871;28;1442;-77
2024/03/20 05:25:55;;;;;;;;;;;;;;;20.74;25.82;98055.44;5019923;28;1476;-77
2024/03/20 05:28:21;;;;;;;;;;;;;;;20.76;26.05;98069.94;5036028;28;1914;-77
2024/03/20 05:30:47;;;;;;;;;;;;;;;20.78;26.07;98073.13;5001935;28;1351;-78
2024/03/20 05:33:12;;;;;;;;;;;;;;;20.76;26.05;98064.28;5016939;28;1463;-77
2024/03/20 05:35:38;;;;;;;;;;;;;;;20.48;26.68;98073.38;5001784;28;1191;-77
2024/03/20 05:38:03;;;;;;;;;;;;;;;20.25;27.15;98075.00;5017614;28;1323;-77
2024/03/20 05:40:29;;;;;;;;;;;;;;;20.28;27.02;98085.44;5018166;28;1019;-77
2024/03/20 05:42:54;;;;;;;;;;;;;;;20.74;26.31;98078.06;5015974;28;1450;-77
2024/03/20 05:45:20;;;;;;;;;;;;;;;20.97;26.21;98084.81;5001428;28;990;-76
2024/03/20 05:47:46;;;;;;;;;;;;;;;20.68;26.56;98085.47;5017615;28;1906;-77
2024/03/20 05:50:11;;;;;;;;;;;;;;;20.38;26.98;98083.66;4985179;28;1014;-77
2024/03/20 05:52:37;;;;;;;;;;;;;;;20.65;26.70;98092.00;5005819;28;1453;-77
2024/03/20 05:55:02;;;;;;;;;;;;;;;20.79;26.80;98097.34;4998221;28;956;-77
2024/03/20 05:57:28;;;;;;;;;;;;;;;20.35;27.25;98100.66;4998999;28;943;-77
2024/03/20 05:59:54;;;;;;;;;;;;;;;20.46;27.22;98095.59;4981489;28;1265;-77
2024/03/20 06:02:19;;;;;;;;;;;;;;;20.28;27.25;98108.06;4971713;28;1355;-77
2024/03/20 06:04:45;;;;;;;;;;;;;;;20.47;27.04;98108.53;4999165;28;1177;-77
2024/03/20 06:07:10;;;;;;;;;;;;;;;20.54;26.94;98114.03;5037839;28;1907;-77
2024/03/20 06:09:36;;;;;;;;;;;;;;;20.75;27.05;98110.75;5037481;28;1008;-77
2024/03/20 06:12:04;;;;;;;;;;;;;;;20.70;27.08;98119.75;5020377;28;1558;-76
2024/03/20 06:14:30;;;;;;;;;;;;;;;20.67;27.01;98117.78;5020607;28;1118;-77
2024/03/20 06:16:56;;;;;;;;;;;;;;;20.77;26.88;98122.41;5005005;28;1010;-78
2024/03/20 06:19:22;;;;;;;;;;;;;;;20.91;26.94;98126.97;5013366;28;1491;-76
2024/03/20 06:21:47;;;;;;;;;;;;;;;20.85;26.89;98127.94;4949728;28;1513;-77
2024/03/20 06:24:13;;;;;;;;;;;;;;;20.17;27.70;98132.91;4981166;28;978;-77
2024/03/20 06:26:38;;;;;;;;;;;;;;;20.26;27.46;98137.97;4981653;28;1989;-78
2024/03/20 06:29:04;;;;;;;;;;;;;;;20.52;27.24;98122.13;4999923;28;1496;-77
2024/03/20 06:31:30;;;;;;;;;;;;;;;20.45;27.33;98128.69;5016831;28;902;-77
2024/03/20 06:33:56;;;;;;;;;;;;;;;20.64;27.38;98123.53;5032312;28;1039;-77
2024/03/20 06:36:21;;;;;;;;;;;;;;;20.71;27.02;98132.66;4961438;28;1249;-77
2024/03/20 06:38:47;;;;;;;;;;;;;;;20.74;27.30;98128.97;4961340;28;1127;-77
2024/03/20 06:41:15;;;;;;;;;;;;;;;21.00;26.69;98140.53;4977592;28;1766;-77
2024/03/20 06:43:41;;;;;;;;;;;;;;;20.86;27.22;98154.97;4977209;28;907;-77
2024/03/20 06:46:06;;;;;;;;;;;;;;;20.42;27.66;98146.53;4962972;28;985;-77
2024/03/20 06:48:32;;;;;;;;;;;;;;;20.76;27.40;98154.75;4960609;28;1907;-77
2024/03/20 06:50:58;;;;;;;;;;;;;;;20.42;27.65;98162.72;4958670;28;1487;-76
2024/03/20 06:53:27;;;;;;;;;;;;;;;20.60;27.64;98162.38;4968398;28;1346;-77
2024/03/20 06:55:54;;;;;;;;;;;;;;;20.67;27.24;98154.53;4953296;28;1331;-78
2024/03/20 06:58:20;;;;;;;;;;;;;;;20.52;27.58;98161.72;4977301;28;1073;-77
2024/03/20 07:00:46;;;;;;;;;;;;;;;20.69;27.35;98157.75;4989973;28;1634;-77
2024/03/20 07:03:13;;;;;;;;;;;;;;;20.33;27.81;98159.66;4980327;28;957;-77
2024/03/20 07:05:38;;;;;;;;;;;;;;;20.36;27.86;98165.22;4997029;28;1119;-77
2024/03/20 07:08:04;;;;;;;;;;;;;;;20.43;27.65;98161.47;5013773;28;1894;-77
2024/03/20 07:10:30;;;;;;;;;;;;;;;20.46;27.98;98169.06;5012364;28;1343;-78
2024/03/20 07:12:55;;;;;;;;;;;;;;;20.73;27.36;98161.31;5019606;28;914;-77
2024/03/20 07:15:21;;;;;;;;;;;;;;;20.71;27.62;98166.56;5020338;28;1265;-76
2024/03/20 07:17:47;;;;;;;;;;;;;;;20.95;27.24;98172.16;5020052;28;1285;-77
2024/03/20 07:20:12;;;;;;;;;;;;;;;20.88;27.21;98167.47;5019823;28;1402;-78
2024/03/20 07:22:38;;;;;;;;;;;;;;;20.57;27.55;98172.50;5038570;28;1127;-77
2024/03/20 07:25:07;;;;;;;;;;;;;;;20.74;27.14;98174.19;5036251;28;974;-77
2024/03/20 07:27:33;;;;;;;;;;;;;;;20.75;27.19;98170.13;5037188;28;1935;-77
2024/03/20 07:29:59;;;;;;;;;;;;;;;20.69;27.42;98171.09;5037024;28;1480;-77
2024/03/20 07:32:25;;;;;;;;;;;;;;;20.93;27.08;98168.97;5037480;28;1004;-77
2024/03/20 07:34:50;;;;;;;;;;;;;;;20.94;27.25;98181.91;5036498;28;982;-77
2024/03/20 07:37:16;;;;;;;;;;;;;;;20.86;26.98;98174.78;5035532;28;1614;-77
2024/03/20 07:39:41;;;;;;;;;;;;;;;20.54;27.41;98176.22;5014318;28;1428;-78
2024/03/20 07:42:08;;;;;;;;;;;;;;;20.61;27.38;98175.28;5016038;28;1105;-77
2024/03/20 07:44:34;;;;;;;;;;;;;;;20.62;27.12;98183.31;5015652;28;982;-77
2024/03/20 07:46:59;;;;;;;;;;;;;;;20.46;27.44;98186.03;5016003;28;1906;-76
2024/03/20 07:49:25;;;;;;;;;;;;;;;20.77;27.08;98181.00;5000018;28;1781;-77
2024/03/20 07:51:51;;;;;;;;;;;;;;;20.64;27.52;98192.19;5019160;28;1101;-77
2024/03/20 07:54:23;;;;;;;;;;;;;;;20.69;27.49;98186.03;5002144;28;1029;-77
2024/03/20 07:56:52;;;;;;;;;;;;;;;20.87;27.21;98190.50;5035562;28;1001;-78
2024/03/20 07:59:18;;;;;;;;;;;;;;;20.94;27.07;98190.38;5001197;28;1409;-77
2024/03/20 08:01:44;;;;;;;;;;;;;;;20.68;27.01;98192.91;5035031;28;1082;-77
2024/03/20 08:04:10;;;;;;;;;;;;;;;20.47;27.31;98198.97;5015045;28;1051;-77
2024/03/20 08:06:36;;;;;;;;;;;;;;;20.65;27.00;98199.41;5015475;28;1906;-76
2024/03/20 08:09:01;;;;;;;;;;;;;;;20.47;27.77;98196.97;5015236;28;980;-77
2024/03/20 08:11:27;;;;;;;;;;;;;;;20.59;27.52;98204.00;4999953;28;1325;-77
2024/03/20 08:13:52;;;;;;;;;;;;;;;20.90;27.13;98198.13;5003215;28;1187;-77
2024/03/20 08:16:18;;;;;;;;;;;;;;;20.48;26.96;98115.78;5003491;28;1262;-76
2024/03/20 08:18:44;;;;;;;;;;;;;;;21.06;26.63;98199.00;5001551;28;1307;-77
2024/03/20 08:21:09;;;;;;;;;;;;;;;20.65;27.18;98195.81;4987178;28;1035;-78
2024/03/20 08:23:35;;;;;;;;;;;;;;;20.69;27.21;98200.16;5002557;28;996;-78
2024/03/20 08:26:01;;;;;;;;;;;;;;;20.44;27.36;98208.28;5003931;28;1063;-77
2024/03/20 08:28:27;;;;;;;;;;;;;;;20.70;27.10;98212.25;5001081;28;1977;-77
2024/03/20 08:30:52;;;;;;;;;;;;;;;20.59;27.41;98215.31;5003577;28;1033;-77
2024/03/20 08:33:19;;;;;;;;;;;;;;;20.61;27.67;98212.81;5001343;28;1361;-77
2024/03/20 08:35:53;;;;;;;;;;;;;;;20.88;27.02;98214.72;5018568;28;1023;-77
2024/03/20 08:38:19;;;;;;;;;;;;;;;20.78;27.27;98219.38;5019697;28;1370;-78
2024/03/20 08:40:44;;;;;;;;;;;;;;;20.75;27.28;98223.06;4986762;28;1501;-77
2024/03/20 08:43:10;;;;;;;;;;;;;;;20.49;27.62;98219.13;5002275;28;943;-77
2024/03/20 08:45:35;;;;;;;;;;;;;;;20.52;27.12;98218.25;5003123;28;1684;-78
2024/03/20 08:48:01;;;;;;;;;;;;;;;20.32;27.54;98231.53;5018802;28;1910;-77
2024/03/20 08:50:27;;;;;;;;;;;;;;;20.55;27.18;98228.69;5003097;28;1108;-77
2024/03/20 08:52:53;;;;;;;;;;;;;;;20.88;26.70;98234.53;4947185;28;1410;-77
2024/03/20 08:55:18;;;;;;;;;;;;;;;20.90;26.47;98229.25;4980138;28;1133;-78
2024/03/20 08:57:44;;;;;;;;;;;;;;;20.75;26.85;98225.91;4979932;28;1470;-78
2024/03/20 09:00:11;;;;;;;;;;;;;;;20.45;27.05;98229.66;4979793;28;1034;-78
2024/03/20 09:02:37;;;;;;;;;;;;;;;20.15;27.47;98234.22;4944209;29;978;-77
2024/03/20 09:05:03;;;;;;;;;;;;;;;20.36;27.14;98229.41;4959026;28;1486;-78
2024/03/20 09:07:29;;;;;;;;;;;;;;;20.51;27.20;98239.25;4947571;28;1906;-77
2024/03/20 09:09:54;;;;;;;;;;;;;;;20.98;26.28;98230.69;4924585;29;956;-77
2024/03/20 09:12:20;;;;;;;;;;;;;;;20.95;26.31;98240.06;4907240;29;1734;-77
2024/03/20 09:14:45;;;;;;;;;;;;;;;20.74;26.55;98242.06;4921566;29;1028;-77
2024/03/20 09:17:11;;;;;;;;;;;;;;;20.55;26.71;98240.00;4935708;29;1243;-77
2024/03/20 09:19:36;;;;;;;;;;;;;;;20.32;27.35;98234.34;4918072;29;1342;-77
2024/03/20 09:22:02;;;;;;;;;;;;;;;20.61;26.66;98238.28;4902934;29;1088;-77
2024/03/20 09:24:28;;;;;;;;;;;;;;;20.72;26.79;98230.38;4938839;29;932;-77
2024/03/20 09:26:55;;;;;;;;;;;;;;;20.89;26.35;98248.25;4962768;28;1906;-77
2024/03/20 09:29:21;;;;;;;;;;;;;;;20.57;26.86;98243.19;4948822;28;1042;-77
2024/03/20 09:31:46;;;;;;;;;;;;;;;20.90;26.42;98240.56;4998819;28;924;-77
2024/03/20 09:34:12;;;;;;;;;;;;;;;20.53;26.79;98248.13;4965968;28;1161;-76
2024/03/20 09:36:38;;;;;;;;;;;;;;;20.42;26.96;98247.50;4966147;28;1154;-78
2024/03/20 09:39:03;;;;;;;;;;;;;;;20.32;27.00;98242.84;4967474;28;1387;-77
2024/03/20 09:41:31;;;;;;;;;;;;;;;20.61;26.70;98255.22;5031401;28;1428;-77
2024/03/20 09:43:57;;;;;;;;;;;;;;;20.63;26.95;98243.50;5021011;28;953;-77
2024/03/20 09:46:23;;;;;;;;;;;;;;;20.41;27.18;98235.38;5005108;28;1316;-77
2024/03/20 09:48:49;;;;;;;;;;;;;;;21.00;26.10;98236.72;5020566;28;1910;-77
2024/03/20 09:51:18;;;;;;;;;;;;;;;20.49;26.94;98247.38;5022682;28;1417;-77
2024/03/20 09:53:51;;;;;;;;;;;;;;;20.32;27.06;98254.13;5040282;28;966;-78
2024/03/20 09:56:16;;;;;;;;;;;;;;;20.44;26.69;98250.69;5025223;28;1184;-77
2024/03/20 09:58:42;;;;;;;;;;;;;;;20.44;26.83;98251.47;4984044;28;930;-76
2024/03/20 10:01:08;;;;;;;;;;;;;;;20.58;26.66;98244.81;4996936;28;1461;-77
2024/03/20 10:03:34;;;;;;;;;;;;;;;20.75;26.40;98242.88;4980268;28;1437;-77
2024/03/20 10:06:00;;;;;;;;;;;;;;;20.69;26.73;98239.75;4997648;28;1590;-77
2024/03/20 10:08:25;;;;;;;;;;;;;;;20.89;26.21;98242.59;4997025;28;1918;-77
2024/03/20 10:10:53;;;;;;;;;;;;;;;20.74;26.60;98236.41;4998638;28;999;-77
2024/03/20 10:13:19;;;;;;;;;;;;;;;20.58;26.76;98227.84;4997511;28;1545;-76
2024/03/20 10:15:44;;;;;;;;;;;;;;;20.50;26.68;98232.03;4998338;28;1617;-77
2024/03/20 10:18:16;;;;;;;;;;;;;;;20.38;26.77;98238.28;5033259;28;1037;-77
2024/03/20 10:20:42;;;;;;;;;;;;;;;20.32;27.13;98223.06;5017492;28;898;-77
2024/03/20 10:23:12;;;;;;;;;;;;;;;20.64;26.51;98225.31;5000735;28;959;-77
2024/03/20 10:25:38;;;;;;;;;;;;;;;20.63;26.74;98227.34;4999318;28;1484;-77
2024/03/20 10:28:04;;;;;;;;;;;;;;;20.72;26.65;98223.94;5016570;28;1902;-77
2024/03/20 10:30:30;;;;;;;;;;;;;;;20.81;26.38;98227.78;5033489;28;921;-77
2024/03/20 10:32:56;;;;;;;;;;;;;;;20.63;26.79;98223.72;5033431;28;942;-78
2024/03/20 10:35:23;;;;;;;;;;;;;;;20.57;26.65;98226.22;5019467;28;1541;-77
2024/03/20 10:37:49;;;;;;;;;;;;;;;20.69;26.66;98222.78;5021891;28;1091;-77
2024/03/20 10:40:15;;;;;;;;;;;;;;;20.64;26.43;98220.44;5020363;28;957;-78
2024/03/20 10:42:42;;;;;;;;;;;;;;;20.65;26.44;98224.88;5037426;28;1149;-77
2024/03/20 10:45:08;;;;;;;;;;;;;;;20.69;26.35;98217.13;5036950;28;1394;-77
2024/03/20 10:47:33;;;;;;;;;;;;;;;20.81;26.20;98212.84;5037785;28;1906;-77
2024/03/20 10:49:59;;;;;;;;;;;;;;;20.87;26.18;98216.75;5038866;28;874;-77
2024/03/20 10:52:25;;;;;;;;;;;;;;;20.59;26.53;98211.69;5038130;28;954;-77
2024/03/20 10:54:52;;;;;;;;;;;;;;;20.49;26.58;98213.47;5036100;28;1407;-77
2024/03/20 10:57:18;;;;;;;;;;;;;;;20.52;26.89;98209.75;5037673;28;921;-77
2024/03/20 10:59:43;;;;;;;;;;;;;;;20.72;26.23;98204.94;4999495;28;1648;-77
2024/03/20 11:02:12;;;;;;;;;;;;;;;20.74;26.50;98196.03;5033064;28;1614;-76
2024/03/20 11:04:39;;;;;;;;;;;;;;;20.72;26.20;98199.28;5015356;28;1679;-78
2024/03/20 11:07:24;;;;;;;;;;;;;;;20.85;26.27;98198.63;4980435;28;1983;-77
2024/03/20 11:09:52;;;;;;;;;;;;;;;20.76;26.16;98205.66;5012807;28;1229;-77
2024/03/20 11:12:24;;;;;;;;;;;;;;;20.16;27.07;98204.75;4996595;28;1142;-77
2024/03/20 11:14:50;;;;;;;;;;;;;;;20.45;26.58;98202.19;5011289;28;1535;-77
2024/03/20 11:17:16;;;;;;;;;;;;;;;20.61;26.77;98193.03;4996320;28;1377;-77
2024/03/20 11:19:43;;;;;;;;;;;;;;;20.80;26.26;98197.13;4996000;28;1009;-77
2024/03/20 11:22:21;;;;;;;;;;;;;;;20.84;26.32;98189.38;5012407;28;1090;-78
2024/03/20 11:24:47;;;;;;;;;;;;;;;20.72;26.48;98182.31;5010519;28;1506;-77
2024/03/20 11:27:12;;;;;;;;;;;;;;;20.91;25.96;98191.25;4980407;28;1971;-77
2024/03/20 11:29:38;;;;;;;;;;;;;;;20.88;26.02;98194.91;4978509;28;995;-77
2024/03/20 11:32:03;;;;;;;;;;;;;;;20.49;26.54;98185.22;4999430;28;972;-78
2024/03/20 11:34:29;;;;;;;;;;;;;;;20.36;27.14;98181.38;4998976;28;1511;-77
2024/03/20 11:36:55;;;;;;;;;;;;;;;20.65;26.34;98193.78;4983408;28;1015;-77
2024/03/20 11:39:20;;;;;;;;;;;;;;;20.47;26.74;98187.69;5016928;28;958;-77
2024/03/20 11:41:46;;;;;;;;;;;;;;;20.58;26.53;98182.59;5000219;28;967;-77
2024/03/20 11:44:12;;;;;;;;;;;;;;;20.83;26.22;98186.94;5016441;28;977;-77
2024/03/20 11:46:38;;;;;;;;;;;;;;;20.79;26.08;98192.69;5017764;28;1377;-77
2024/03/20 11:49:06;;;;;;;;;;;;;;;20.70;26.22;98187.59;5037154;28;922;-77
2024/03/20 11:51:32;;;;;;;;;;;;;;;20.65;26.39;98181.66;4998985;28;1267;-77
2024/03/20 11:53:58;;;;;;;;;;;;;;;20.89;26.12;98179.56;4982994;28;1049;-77
2024/03/20 11:56:23;;;;;;;;;;;;;;;20.68;26.28;98181.59;4975693;28;1347;-77
2024/03/20 11:58:49;;;;;;;;;;;;;;;20.63;26.34;98184.13;4959823;28;1271;-78
2024/03/20 12:01:15;;;;;;;;;;;;;;;20.46;26.53;98186.03;4960749;28;931;-77
2024/03/20 12:03:42;;;;;;;;;;;;;;;20.67;26.47;98184.84;4976298;28;909;-77
2024/03/20 12:06:08;;;;;;;;;;;;;;;20.79;26.17;98193.50;4972981;28;1695;-78
2024/03/20 12:08:34;;;;;;;;;;;;;;;20.68;26.18;98187.25;4979120;28;1985;-77
2024/03/20 12:11:12;;;;;;;;;;;;;;;20.83;26.41;98169.97;4975040;28;1347;-76
2024/03/20 12:13:38;;;;;;;;;;;;;;;20.78;26.21;98180.59;4975449;28;980;-77
2024/03/20 12:16:03;;;;;;;;;;;;;;;20.33;26.87;98176.59;4976200;28;1516;-77
2024/03/20 12:18:29;;;;;;;;;;;;;;;20.58;26.49;98179.78;4991950;28;908;-77
2024/03/20 12:20:54;;;;;;;;;;;;;;;20.60;26.32;98180.13;4993084;28;959;-77
2024/03/20 12:23:20;;;;;;;;;;;;;;;20.28;26.80;98178.69;4975444;28;976;-77
2024/03/20 12:25:46;;;;;;;;;;;;;;;20.56;26.71;98173.75;4975768;28;1383;-77
2024/03/20 12:28:11;;;;;;;;;;;;;;;20.54;26.52;98179.84;4991953;28;1981;-77
2024/03/20 12:30:38;;;;;;;;;;;;;;;20.44;26.79;98178.00;4980082;28;957;-78
2024/03/20 12:33:04;;;;;;;;;;;;;;;20.58;26.38;98181.81;4979113;28;952;-76
2024/03/20 12:35:30;;;;;;;;;;;;;;;20.30;26.69;98179.03;4995181;28;1676;-77
2024/03/20 12:37:56;;;;;;;;;;;;;;;20.38;26.52;98168.41;4961849;28;1396;-77
2024/03/20 12:40:21;;;;;;;;;;;;;;;20.40;26.58;98170.81;4974432;28;1496;-77
2024/03/20 12:42:48;;;;;;;;;;;;;;;20.25;26.57;98171.06;4995260;28;971;-77
2024/03/20 12:45:13;;;;;;;;;;;;;;;20.51;26.46;98165.78;4978846;28;945;-77
2024/03/20 12:47:39;;;;;;;;;;;;;;;20.79;26.04;98170.88;4986869;28;1991;-77
2024/03/20 12:50:05;;;;;;;;;;;;;;;20.69;26.11;98171.09;5035814;28;943;-77
2024/03/20 12:52:30;;;;;;;;;;;;;;;20.80;26.00;98172.47;5019931;28;1083;-77